createdAt,value
2023-05-11T00:00:27.102Z,14.35
2023-05-11T00:04:36.992Z,14.30
2023-05-11T00:08:45.704Z,14.26
2023-05-11T00:12:44.962Z,14.21
2023-05-11T00:16:47.387Z,14.18
2023-05-11T00:20:49.692Z,14.15
2023-05-11T00:24:59.512Z,14.13
2023-05-11T00:28:59.601Z,14.09
2023-05-11T00:33:09.221Z,14.05
2023-05-11T00:37:09.094Z,14.01
2023-05-11T00:40:58.771Z,13.94
2023-05-11T00:45:08.410Z,13.91
2023-05-11T00:49:18.319Z,13.86
2023-05-11T00:53:28.051Z,13.79
2023-05-11T00:57:10.618Z,13.72
2023-05-11T01:01:20.608Z,13.64
2023-05-11T01:05:30.353Z,13.58
2023-05-11T01:09:45.976Z,13.49
2023-05-11T01:13:58.269Z,13.43
2023-05-11T01:18:14.019Z,13.36
2023-05-11T01:22:23.753Z,13.29
2023-05-11T01:26:51.673Z,13.24
2023-05-11T01:31:06.284Z,13.20
2023-05-11T01:35:18.809Z,13.15
2023-05-11T01:39:28.775Z,13.09
2023-05-11T01:43:32.201Z,13.02
2023-05-11T01:47:40.118Z,12.96
2023-05-11T01:51:52.207Z,12.90
2023-05-11T01:55:30.865Z,12.83
2023-05-11T01:59:30.879Z,12.73
2023-05-11T02:03:40.281Z,12.62
2023-05-11T02:07:49.999Z,12.53
2023-05-11T02:11:48.061Z,12.48
2023-05-11T02:15:57.730Z,12.44
2023-05-11T02:20:07.311Z,12.39
2023-05-11T02:24:16.754Z,12.35
2023-05-11T02:28:09.125Z,12.30
2023-05-11T02:32:18.489Z,12.25
2023-05-11T02:36:28.108Z,12.19
2023-05-11T02:40:40.495Z,12.15
2023-05-11T02:44:48.723Z,12.10
2023-05-11T02:49:00.781Z,12.07
2023-05-11T02:53:01.634Z,12.02
2023-05-11T02:57:04.040Z,11.97
2023-05-11T03:01:13.753Z,11.92
2023-05-11T03:05:12.765Z,11.88
2023-05-11T03:09:22.265Z,11.87
2023-05-11T03:12:58.479Z,11.85
2023-05-11T03:16:51.490Z,11.83
2023-05-11T03:20:44.135Z,11.81
2023-05-11T03:24:43.668Z,11.77
2023-05-11T03:28:39.707Z,11.74
2023-05-11T03:32:44.519Z,11.73
2023-05-11T03:36:43.986Z,11.71
2023-05-11T03:40:35.186Z,11.70
2023-05-11T03:44:44.808Z,11.69
2023-05-11T03:48:20.636Z,11.69
2023-05-11T03:52:13.533Z,11.68
2023-05-11T03:56:22.923Z,11.68
2023-05-11T04:00:33.430Z,11.69
2023-05-11T04:04:28.680Z,11.70
2023-05-11T04:08:18.424Z,11.71
2023-05-11T04:12:20.666Z,11.71
2023-05-11T04:16:08.664Z,11.72
2023-05-11T04:20:08.957Z,11.74
2023-05-11T04:24:11.819Z,11.76
2023-05-11T04:27:29.316Z,11.76
2023-05-11T04:31:38.888Z,11.78
2023-05-11T04:35:23.803Z,11.79
2023-05-11T04:39:06.008Z,11.80
2023-05-11T04:43:07.762Z,11.79
2023-05-11T04:46:43.711Z,11.79
2023-05-11T04:50:34.995Z,11.78
2023-05-11T04:54:36.833Z,11.78
2023-05-11T04:58:19.224Z,11.82
2023-05-11T05:02:28.883Z,11.84
2023-05-11T05:06:05.898Z,11.88
2023-05-11T05:09:54.506Z,11.89
2023-05-11T05:13:39.473Z,11.91
2023-05-11T05:17:24.802Z,11.94
2023-05-11T05:20:49.045Z,11.98
2023-05-11T05:24:18.294Z,12.03
2023-05-11T05:27:21.737Z,12.07
2023-05-11T05:31:07.720Z,12.11
2023-05-11T05:33:59.143Z,12.16
2023-05-11T05:37:31.454Z,12.19
2023-05-11T05:40:52.919Z,12.25
2023-05-11T05:43:38.382Z,12.28
2023-05-11T05:46:50.032Z,12.31
2023-05-11T05:50:26.947Z,12.38
2023-05-11T05:53:41.417Z,12.44
2023-05-11T05:56:32.098Z,12.50
2023-05-11T06:00:08.873Z,12.55
2023-05-11T06:03:46.566Z,12.59
2023-05-11T06:06:57.964Z,12.64
2023-05-11T06:10:12.880Z,12.66
2023-05-11T06:13:42.570Z,12.69
2023-05-11T06:17:28.501Z,12.73
2023-05-11T06:20:58.623Z,12.77
2023-05-11T06:24:48.220Z,12.82
2023-05-11T06:28:36.604Z,12.89
2023-05-11T06:32:21.209Z,12.95
2023-05-11T06:36:10.619Z,13.02
2023-05-11T06:40:21.233Z,13.08
2023-05-11T06:44:13.259Z,13.18
2023-05-11T06:47:42.142Z,13.24
2023-05-11T06:51:25.219Z,13.31
2023-05-11T06:55:07.373Z,13.37
2023-05-11T06:58:51.674Z,13.45
2023-05-11T07:02:34.478Z,13.51
2023-05-11T07:05:46.017Z,13.58
2023-05-11T07:09:38.390Z,13.65
2023-05-11T07:13:48.898Z,13.75
2023-05-11T07:17:44.029Z,13.85
2023-05-11T07:21:42.733Z,13.95
2023-05-11T07:25:25.742Z,14.04
2023-05-11T07:29:18.433Z,14.12
2023-05-11T07:32:55.347Z,14.18
2023-05-11T07:35:58.076Z,14.27
2023-05-11T07:39:37.384Z,14.33
2023-05-11T07:43:38.010Z,14.40
2023-05-11T07:47:29.046Z,14.49
2023-05-11T07:51:14.204Z,14.57
2023-05-11T07:54:02.606Z,14.67
2023-05-11T07:56:51.308Z,14.74
2023-05-11T08:00:33.475Z,14.82
2023-05-11T08:04:25.367Z,14.93
2023-05-11T08:07:50.774Z,15.02
2023-05-11T08:11:01.545Z,15.12
2023-05-11T08:14:14.681Z,15.22
2023-05-11T08:17:53.098Z,15.29
2023-05-11T08:21:42.573Z,15.38
2023-05-11T08:24:42.008Z,15.46
2023-05-11T08:28:18.769Z,15.50
2023-05-11T08:32:06.141Z,15.58
2023-05-11T08:35:47.028Z,15.68
2023-05-11T08:39:43.287Z,15.77
2023-05-11T08:43:17.596Z,15.85
2023-05-11T08:47:21.875Z,15.94
2023-05-11T08:50:37.238Z,16.04
2023-05-11T08:54:01.763Z,16.10
2023-05-11T08:57:51.279Z,16.18
2023-05-11T09:01:22.432Z,16.26
2023-05-11T09:05:01.835Z,16.35
2023-05-11T09:08:40.986Z,16.43
2023-05-11T09:12:41.455Z,16.50
2023-05-11T09:16:37.309Z,16.58
2023-05-11T09:20:35.182Z,16.66
2023-05-11T09:23:50.358Z,16.73
2023-05-11T09:27:10.980Z,16.75
2023-05-11T09:30:43.749Z,16.79
2023-05-11T09:34:53.259Z,16.84
2023-05-11T09:38:24.881Z,16.89
2023-05-11T09:41:40.836Z,16.95
2023-05-11T09:44:42.343Z,17.01
2023-05-11T09:47:50.163Z,17.05
2023-05-11T09:51:04.736Z,17.10
2023-05-11T09:54:40.485Z,17.14
2023-05-11T09:58:23.443Z,17.19
2023-05-11T10:01:10.299Z,17.23
2023-05-11T10:04:00.262Z,17.25
2023-05-11T10:07:48.466Z,17.28
2023-05-11T10:11:57.684Z,17.33
2023-05-11T10:15:35.082Z,17.39
2023-05-11T10:18:59.846Z,17.43
2023-05-11T10:22:32.606Z,17.47
2023-05-11T10:26:15.192Z,17.51
2023-05-11T10:30:14.554Z,17.55
2023-05-11T10:33:57.827Z,17.59
2023-05-11T10:37:01.400Z,17.64
2023-05-11T10:39:56.761Z,17.68
2023-05-11T10:43:55.844Z,17.74
2023-05-11T10:47:35.246Z,17.78
2023-05-11T10:51:57.855Z,17.82
2023-05-11T10:55:46.259Z,17.85
2023-05-11T10:59:32.888Z,17.90
2023-05-11T11:02:45.367Z,17.98
2023-05-11T11:06:16.324Z,18.01
2023-05-11T11:10:21.803Z,18.03
2023-05-11T11:14:14.516Z,18.06
2023-05-11T11:17:54.057Z,18.10
2023-05-11T11:21:50.929Z,18.16
2023-05-11T11:25:58.883Z,18.25
2023-05-11T11:29:44.130Z,18.34
2023-05-11T11:33:53.776Z,18.42
2023-05-11T11:37:41.195Z,18.49
2023-05-11T11:41:11.953Z,18.51
2023-05-11T11:44:19.265Z,18.53
2023-05-11T11:47:58.190Z,18.57
2023-05-11T11:51:15.036Z,18.58
2023-05-11T11:55:35.974Z,18.62
2023-05-11T11:59:43.874Z,18.66
2023-05-11T12:03:15.096Z,18.74
2023-05-11T12:06:02.825Z,18.80
2023-05-11T12:09:22.319Z,18.86
2023-05-11T12:12:59.861Z,18.92
2023-05-11T12:15:49.978Z,18.99
2023-05-11T12:19:12.491Z,19.05
2023-05-11T12:23:04.208Z,19.11
2023-05-11T12:26:30.346Z,19.13
2023-05-11T12:29:40.921Z,19.14
2023-05-11T12:32:13.141Z,19.18
2023-05-11T12:34:57.665Z,19.20
2023-05-11T12:38:05.673Z,19.24
2023-05-11T12:41:16.184Z,19.28
2023-05-11T12:44:31.015Z,19.35
2023-05-11T12:47:41.517Z,19.43
2023-05-11T12:51:14.306Z,19.51
2023-05-11T12:54:05.198Z,19.54
2023-05-11T12:57:32.951Z,19.55
2023-05-11T13:00:59.979Z,19.55
2023-05-11T13:03:46.346Z,19.54
2023-05-11T13:06:20.229Z,19.56
2023-05-11T13:09:24.341Z,19.60
2023-05-11T13:12:17.553Z,19.59
2023-05-11T13:15:39.958Z,19.57
2023-05-11T13:19:37.551Z,19.58
2023-05-11T13:22:19.443Z,19.58
2023-05-11T13:25:09.357Z,19.59
2023-05-11T13:28:38.350Z,19.58
2023-05-11T13:31:53.564Z,19.58
2023-05-11T13:34:47.271Z,19.60
2023-05-11T13:37:35.931Z,19.61
2023-05-11T13:40:25.408Z,19.62
2023-05-11T13:43:01.889Z,19.68
2023-05-11T13:45:42.832Z,19.72
2023-05-11T13:48:46.141Z,19.77
2023-05-11T13:52:11.769Z,19.85
2023-05-11T13:54:46.130Z,19.88
2023-05-11T13:57:35.481Z,19.90
2023-05-11T14:00:39.237Z,19.96
2023-05-11T14:03:12.717Z,20.02
2023-05-11T14:06:04.780Z,20.11
2023-05-11T14:08:38.179Z,20.17
2023-05-11T14:11:39.309Z,20.27
2023-05-11T14:14:36.466Z,20.37
2023-05-11T14:17:18.830Z,20.49
2023-05-11T14:19:49.867Z,20.59
2023-05-11T14:22:18.313Z,20.69
2023-05-11T14:24:50.063Z,20.80
2023-05-11T14:27:19.320Z,20.88
2023-05-11T14:29:47.826Z,20.97
2023-05-11T14:32:16.198Z,21.06
2023-05-11T14:34:44.765Z,21.17
2023-05-11T14:37:16.133Z,21.25
2023-05-11T14:39:50.636Z,21.35
2023-05-11T14:42:19.183Z,21.45
2023-05-11T14:45:17.992Z,21.55
2023-05-11T14:48:19.826Z,21.68
2023-05-11T14:51:26.387Z,21.79
2023-05-11T14:54:20.664Z,21.86
2023-05-11T14:57:49.120Z,21.97
2023-05-11T15:01:31.361Z,22.11
2023-05-11T15:04:52.029Z,22.31
2023-05-11T15:08:18.256Z,22.47
2023-05-11T15:11:33.731Z,22.55
2023-05-11T15:14:26.085Z,22.62
2023-05-11T15:17:00.630Z,22.70
2023-05-11T15:19:52.043Z,22.74
2023-05-11T15:22:29.869Z,22.78
2023-05-11T15:25:26.242Z,22.84
2023-05-11T15:28:11.270Z,22.88
2023-05-11T15:30:45.182Z,22.92
2023-05-11T15:33:22.293Z,22.94
2023-05-11T15:36:32.413Z,23.01
2023-05-11T15:39:06.585Z,23.08
2023-05-11T15:41:50.200Z,23.16
2023-05-11T15:44:26.406Z,23.17
2023-05-11T15:47:01.752Z,23.16
2023-05-11T15:49:36.116Z,23.15
2023-05-11T15:52:56.401Z,23.14
2023-05-11T15:55:33.095Z,23.13
2023-05-11T15:58:10.617Z,23.11
2023-05-11T16:01:17.391Z,23.13
2023-05-11T16:04:29.131Z,23.13
2023-05-11T16:07:32.867Z,23.15
2023-05-11T16:10:29.248Z,23.13
2023-05-11T16:13:28.156Z,23.09
2023-05-11T16:17:06.239Z,23.09
2023-05-11T16:20:27.213Z,23.05
2023-05-11T16:23:15.584Z,22.95
2023-05-11T16:26:16.635Z,22.87
2023-05-11T16:30:24.489Z,22.75
2023-05-11T16:34:05.789Z,22.69
2023-05-11T16:37:58.088Z,22.59
2023-05-11T16:41:54.192Z,22.50
2023-05-11T16:45:41.568Z,22.44
2023-05-11T16:51:06.196Z,22.37
2023-05-11T16:54:00.049Z,22.35
2023-05-11T16:57:25.254Z,22.36
2023-05-11T17:00:06.562Z,22.44
2023-05-11T17:03:41.599Z,22.49
2023-05-11T17:07:17.993Z,22.51
2023-05-11T17:11:10.027Z,22.55
2023-05-11T17:14:14.404Z,22.57
2023-05-11T17:17:25.013Z,22.62
2023-05-11T17:21:21.814Z,22.68
2023-05-11T17:24:58.257Z,22.74
2023-05-11T17:28:31.246Z,22.74
2023-05-11T17:31:52.283Z,22.69
2023-05-11T17:34:44.648Z,22.64
2023-05-11T17:37:46.368Z,22.60
2023-05-11T17:41:18.097Z,22.56
2023-05-11T17:44:51.883Z,22.45
2023-05-11T17:47:42.707Z,22.37
2023-05-11T17:51:23.325Z,22.24
2023-05-11T17:55:17.635Z,22.09
2023-05-11T17:58:48.723Z,21.93
2023-05-11T18:01:54.151Z,21.80
2023-05-11T18:05:05.087Z,21.68
2023-05-11T18:08:18.908Z,21.54
2023-05-11T18:11:24.549Z,21.41
2023-05-11T18:14:39.532Z,21.19
2023-05-11T18:18:48.965Z,20.94
2023-05-11T18:22:20.509Z,20.65
2023-05-11T18:26:05.149Z,20.42
2023-05-11T18:29:41.030Z,20.19
2023-05-11T18:32:48.458Z,19.95
2023-05-11T18:36:16.089Z,19.79
2023-05-11T18:39:30.673Z,19.59
2023-05-11T18:43:13.948Z,19.41
2023-05-11T18:47:14.400Z,19.21
2023-05-11T18:51:12.887Z,19.01
2023-05-11T18:54:43.509Z,18.81
2023-05-11T18:58:14.909Z,18.66
2023-05-11T19:02:24.435Z,18.50
2023-05-11T19:06:34.169Z,18.28
2023-05-11T19:10:24.920Z,18.10
2023-05-11T19:14:17.284Z,17.91
2023-05-11T19:17:58.347Z,17.70
2023-05-11T19:21:50.986Z,17.50
2023-05-11T19:25:29.045Z,17.35
2023-05-11T19:29:30.603Z,17.20
2023-05-11T19:33:22.735Z,17.07
2023-05-11T19:37:12.034Z,16.91
2023-05-11T19:41:01.510Z,16.77
2023-05-11T19:44:48.556Z,16.67
2023-05-11T19:48:59.945Z,16.55
2023-05-11T19:53:00.876Z,16.39
2023-05-11T19:56:52.859Z,16.24
2023-05-11T20:00:26.461Z,16.10
2023-05-11T20:04:06.880Z,15.98
2023-05-11T20:07:19.387Z,15.89
2023-05-11T20:11:27.544Z,15.82
2023-05-11T20:15:09.824Z,15.75
2023-05-11T20:19:12.378Z,15.68
2023-05-11T20:23:04.918Z,15.62
2023-05-11T20:25:48.385Z,15.56
2023-05-11T20:29:19.246Z,15.52
2023-05-11T20:37:28.846Z,15.37
2023-05-11T20:41:38.471Z,15.29
2023-05-11T20:45:48.153Z,15.19
2023-05-11T20:49:57.348Z,15.11
2023-05-11T20:54:06.922Z,15.03
2023-05-11T20:58:09.071Z,14.94
2023-05-11T21:02:18.649Z,14.82
2023-05-11T21:05:33.300Z,14.72
2023-05-11T21:09:07.851Z,14.66
2023-05-11T21:13:09.967Z,14.63
2023-05-11T21:17:19.467Z,14.61
2023-05-11T21:21:28.879Z,14.58
2023-05-11T21:25:04.391Z,14.55
2023-05-11T21:29:05.173Z,14.53
2023-05-11T21:32:57.554Z,14.55
2023-05-11T21:36:56.750Z,14.54
2023-05-11T21:40:52.385Z,14.50
2023-05-11T21:45:01.841Z,14.45
2023-05-11T21:48:46.607Z,14.41
2023-05-11T21:51:55.918Z,14.39
2023-05-11T21:55:47.604Z,14.39
2023-05-11T21:59:27.592Z,14.39
2023-05-11T22:03:37.374Z,14.38
2023-05-11T22:07:25.788Z,14.34
2023-05-11T22:11:28.134Z,14.30
2023-05-11T22:15:28.318Z,14.24
2023-05-11T22:19:37.426Z,14.17
2023-05-11T22:23:26.594Z,14.13
2023-05-11T22:27:29.811Z,14.10
2023-05-11T22:31:29.414Z,14.06
2023-05-11T22:35:38.650Z,14.02
2023-05-11T22:39:48.313Z,14.00
2023-05-11T22:43:57.722Z,13.99
2023-05-11T22:48:06.015Z,14.00
2023-05-11T22:51:58.219Z,14.02
2023-05-11T22:55:35.250Z,14.02
2023-05-11T22:59:44.838Z,14.04
2023-05-11T23:03:54.413Z,14.05
2023-05-11T23:07:15.882Z,14.06
2023-05-11T23:11:23.935Z,14.06
2023-05-11T23:15:32.417Z,14.05
2023-05-11T23:19:06.413Z,14.02
2023-05-11T23:23:16.014Z,13.99
2023-05-11T23:27:02.228Z,13.98
2023-05-11T23:30:50.588Z,13.98
2023-05-11T23:34:50.000Z,14.00
2023-05-11T23:38:59.598Z,13.98
2023-05-11T23:43:09.511Z,13.91
2023-05-11T23:47:19.109Z,13.82
2023-05-11T23:51:28.614Z,13.74
2023-05-11T23:55:30.647Z,13.64
2023-05-11T23:59:40.256Z,13.59
